Time;durP1;ratioP1;P1;durP2;ratioP2;P2;SDS_P1;SDS_P2;PMS_P1;PMS_P2;Temp;Humidity;BMP_temperature;BMP_pressure;BME280_temperature;BME280_humidity;BME280_pressure;Samples;Min_cycle;Max_cycle;Signal;HPM_P1;HPM_P2
2023/08/26 00:00:18;;;;;;;23.15;20.15;;;17.30;99.90;;;;;;6243444;23;20351;-44
2023/08/26 00:02:44;;;;;;;25.83;20.75;;;17.30;99.90;;;;;;6242276;23;20016;-43
2023/08/26 00:05:09;;;;;;;25.55;19.38;;;17.40;99.90;;;;;;6243000;23;20078;-44
2023/08/26 00:07:35;;;;;;;25.15;20.50;;;17.40;99.90;;;;;;6242609;23;20012;-44
2023/08/26 00:10:00;;;;;;;22.50;19.23;;;17.20;99.90;;;;;;6243848;23;20012;-44
2023/08/26 00:12:26;;;;;;;22.50;18.85;;;17.20;99.90;;;;;;6243961;23;20027;-43
2023/08/26 00:14:52;;;;;;;23.05;18.08;;;17.20;99.90;;;;;;6243929;23;20087;-44
2023/08/26 00:17:18;;;;;;;20.42;17.35;;;17.10;99.90;;;;;;6242547;23;20082;-46
2023/08/26 00:19:44;;;;;;;19.38;16.58;;;17.20;99.90;;;;;;6245770;23;20094;-45
2023/08/26 00:22:10;;;;;;;18.08;16.33;;;17.10;99.90;;;;;;6245447;23;20019;-43
2023/08/26 00:24:36;;;;;;;17.75;15.73;;;17.00;99.90;;;;;;6245978;23;20016;-43
2023/08/26 00:27:03;;;;;;;17.65;15.75;;;17.00;99.90;;;;;;6218489;23;20083;-43
2023/08/26 00:29:29;;;;;;;17.27;15.43;;;16.90;99.90;;;;;;6245486;23;20012;-42
2023/08/26 00:31:55;;;;;;;21.98;16.38;;;17.00;99.90;;;;;;6245126;23;20339;-43
2023/08/26 00:34:20;;;;;;;19.48;16.25;;;16.90;99.90;;;;;;6245692;23;20336;-43
2023/08/26 00:36:46;;;;;;;20.05;15.52;;;17.00;99.90;;;;;;6245190;23;20022;-43
2023/08/26 00:39:11;;;;;;;20.40;14.95;;;16.90;99.90;;;;;;6246392;23;20054;-43
2023/08/26 00:41:37;;;;;;;18.08;14.85;;;16.90;99.90;;;;;;6246871;23;20016;-44
2023/08/26 00:44:03;;;;;;;22.27;15.95;;;17.00;99.90;;;;;;6244340;23;20016;-46
2023/08/26 00:46:29;;;;;;;17.75;14.38;;;17.10;99.90;;;;;;6242704;23;20035;-42
2023/08/26 00:48:55;;;;;;;17.17;14.85;;;17.00;99.90;;;;;;6217615;23;20023;-42
2023/08/26 00:51:21;;;;;;;18.35;13.85;;;16.90;99.90;;;;;;6244736;23;20019;-42
2023/08/26 00:53:48;;;;;;;18.10;15.20;;;16.90;99.90;;;;;;6244932;23;20020;-43
2023/08/26 00:56:14;;;;;;;19.30;14.37;;;17.00;99.90;;;;;;6244834;23;20023;-43
2023/08/26 00:58:40;;;;;;;16.40;14.15;;;17.00;99.90;;;;;;6244676;23;20008;-44
2023/08/26 01:01:06;;;;;;;17.25;15.05;;;16.90;99.90;;;;;;6244642;23;20087;-43
2023/08/26 01:03:32;;;;;;;17.80;14.30;;;16.90;99.90;;;;;;6244322;23;20067;-46
2023/08/26 01:05:58;;;;;;;15.27;13.43;;;16.80;99.90;;;;;;6244394;23;20056;-44
2023/08/26 01:08:24;;;;;;;17.98;14.90;;;16.80;99.90;;;;;;6245222;23;20013;-43
2023/08/26 01:11:24;;;;;;;16.90;15.20;;;16.80;99.90;;;;;;6217769;23;20012;-44
2023/08/26 01:14:02;;;;;;;14.40;12.90;;;16.80;99.90;;;;;;6244107;23;20456;-44
2023/08/26 01:16:30;;;;;;;17.10;13.57;;;16.70;99.90;;;;;;6244872;23;20490;-43
2023/08/26 01:18:56;;;;;;;16.25;12.95;;;16.70;99.90;;;;;;6244839;23;20027;-43
2023/08/26 01:21:30;;;;;;;17.40;12.68;;;16.60;99.90;;;;;;6247000;23;20009;-42
2023/08/26 01:23:56;;;;;;;14.85;12.68;;;16.40;99.90;;;;;;6219684;23;20012;-43
2023/08/26 01:26:22;;;;;;;14.80;13.13;;;16.40;99.90;;;;;;6246997;23;20012;-42
2023/08/26 01:28:48;;;;;;;15.45;12.48;;;16.30;99.90;;;;;;6246716;23;20078;-44
2023/08/26 01:31:14;;;;;;;16.45;13.70;;;16.40;99.90;;;;;;6246600;23;20340;-42
2023/08/26 01:33:53;;;;;;;14.95;13.13;;;16.30;99.90;;;;;;6246676;23;20062;-46
2023/08/26 01:36:23;;;;;;;15.35;12.88;;;16.20;99.90;;;;;;6246821;23;20118;-43
2023/08/26 01:38:50;;;;;;;15.23;12.43;;;16.20;99.90;;;;;;6246172;23;20019;-42
2023/08/26 01:41:19;;;;;;;15.43;12.27;;;16.10;99.90;;;;;;6246831;23;20348;-43
2023/08/26 01:43:46;;;;;;;15.27;11.75;;;16.10;99.90;;;;;;6246786;23;20016;-44
2023/08/26 01:46:12;;;;;;;13.25;11.70;;;16.10;99.90;;;;;;6246726;23;20008;-42
2023/08/26 01:48:38;;;;;;;13.23;11.57;;;15.90;99.90;;;;;;6246239;23;20012;-46
2023/08/26 01:51:03;;;;;;;12.95;11.45;;;15.90;99.90;;;;;;6243340;23;20066;-44
2023/08/26 01:53:29;;;;;;;14.35;11.55;;;15.90;99.90;;;;;;6242957;23;20486;-42
2023/08/26 01:55:55;;;;;;;15.05;11.02;;;15.80;99.90;;;;;;6241141;23;20099;-42
2023/08/26 01:58:21;;;;;;;16.50;11.98;;;15.80;99.90;;;;;;6244405;23;20083;-44
2023/08/26 02:00:46;;;;;;;19.17;12.52;;;15.80;99.90;;;;;;6244051;23;20016;-43
2023/08/26 02:03:12;;;;;;;13.65;10.90;;;15.80;99.90;;;;;;6244113;23;20024;-44
2023/08/26 02:05:38;;;;;;;12.43;10.75;;;15.80;99.90;;;;;;6217730;23;20022;-42
2023/08/26 02:08:04;;;;;;;14.40;11.13;;;15.70;99.90;;;;;;6243267;23;20050;-43
2023/08/26 02:10:29;;;;;;;12.85;10.82;;;15.70;99.90;;;;;;6242731;23;20024;-44
2023/08/26 02:12:55;;;;;;;13.13;9.70;;;15.80;99.90;;;;;;6215335;23;20016;-43
2023/08/26 02:15:20;;;;;;;14.52;10.27;;;15.70;99.90;;;;;;6243291;23;20079;-45
2023/08/26 02:17:46;;;;;;;12.27;10.32;;;15.70;99.90;;;;;;6217067;23;20047;-43
2023/08/26 02:20:12;;;;;;;15.13;10.80;;;15.80;99.90;;;;;;6218157;23;20018;-43
2023/08/26 02:22:38;;;;;;;14.13;9.82;;;15.70;99.90;;;;;;6243674;23;20016;-44
2023/08/26 02:25:04;;;;;;;13.25;10.10;;;15.70;99.90;;;;;;6244394;23;20012;-43
2023/08/26 02:27:29;;;;;;;10.93;9.63;;;15.70;99.90;;;;;;6244503;23;20023;-43
2023/08/26 02:29:55;;;;;;;10.70;9.63;;;15.60;99.90;;;;;;6243357;23;20020;-42
2023/08/26 02:32:20;;;;;;;14.25;10.57;;;15.70;99.90;;;;;;6242668;23;20117;-43
2023/08/26 02:34:46;;;;;;;13.27;8.93;;;15.80;99.90;;;;;;6244334;23;20016;-42
2023/08/26 02:37:12;;;;;;;10.07;8.98;;;15.70;99.90;;;;;;6243800;23;20012;-42
2023/08/26 02:39:38;;;;;;;12.57;9.10;;;15.70;99.90;;;;;;6244332;23;20012;-43
2023/08/26 02:42:04;;;;;;;11.43;9.63;;;15.70;99.90;;;;;;6243650;23;20502;-43
2023/08/26 02:44:29;;;;;;;10.80;9.65;;;15.80;99.90;;;;;;6245957;23;20012;-43
2023/08/26 02:46:55;;;;;;;10.35;9.15;;;15.80;99.90;;;;;;6245782;23;20123;-43
2023/08/26 02:49:20;;;;;;;10.68;8.55;;;15.70;99.90;;;;;;6246011;23;20444;-43
2023/08/26 02:51:46;;;;;;;9.93;8.75;;;15.70;99.90;;;;;;6245870;23;20016;-42
2023/08/26 02:54:12;;;;;;;10.68;8.77;;;15.70;99.90;;;;;;6245591;23;20024;-42
2023/08/26 02:56:37;;;;;;;13.15;8.88;;;15.70;99.90;;;;;;6245863;23;20091;-43
2023/08/26 02:59:06;;;;;;;9.65;8.10;;;15.60;99.90;;;;;;6245949;23;20018;-43
2023/08/26 03:01:31;;;;;;;11.07;8.50;;;15.70;99.90;;;;;;6245376;23;20018;-43
2023/08/26 03:03:57;;;;;;;12.32;8.75;;;15.50;99.90;;;;;;6245719;23;20043;-43
2023/08/26 03:06:23;;;;;;;13.60;9.43;;;15.50;99.90;;;;;;6245891;23;20374;-44
2023/08/26 03:08:49;;;;;;;14.25;8.80;;;15.50;99.90;;;;;;6245406;23;20343;-42
2023/08/26 03:11:14;;;;;;;10.43;8.40;;;15.60;99.90;;;;;;6245405;23;20012;-44
2023/08/26 03:13:40;;;;;;;9.38;8.38;;;15.40;99.90;;;;;;6243420;23;20079;-43
2023/08/26 03:16:10;;;;;;;9.63;8.18;;;15.40;99.90;;;;;;6243788;23;20476;-42
2023/08/26 03:18:36;;;;;;;11.07;9.07;;;15.50;99.90;;;;;;6243761;23;20022;-42
2023/08/26 03:21:04;;;;;;;9.40;8.43;;;15.40;99.90;;;;;;6243972;23;20049;-46
2023/08/26 03:23:30;;;;;;;10.27;9.02;;;15.60;99.90;;;;;;6243657;23;20107;-42
2023/08/26 03:25:55;;;;;;;10.85;9.25;;;15.10;99.90;;;;;;6191766;23;20464;-43
2023/08/26 03:28:21;;;;;;;13.00;9.48;;;15.80;99.90;;;;;;6242960;23;20012;-46
2023/08/26 03:30:47;;;;;;;9.82;8.52;;;15.40;99.90;;;;;;6216897;23;20027;-44
2023/08/26 03:33:13;;;;;;;12.63;8.85;;;15.50;99.90;;;;;;6243295;23;20008;-44
2023/08/26 03:35:41;;;;;;;10.50;9.10;;;15.40;99.90;;;;;;6243633;23;20031;-42
2023/08/26 03:38:07;;;;;;;12.55;8.88;;;15.30;99.90;;;;;;6242884;23;20017;-43
2023/08/26 03:40:33;;;;;;;11.82;9.27;;;15.20;99.90;;;;;;6242981;23;20016;-42
2023/08/26 03:43:01;;;;;;;9.57;8.68;;;15.20;99.90;;;;;;6243148;23;20086;-45
2023/08/26 03:45:29;;;;;;;13.48;9.23;;;15.20;99.90;;;;;;6243526;23;20038;-44
2023/08/26 03:47:54;;;;;;;;;;;15.20;99.90;;;;;;6241011;23;20123;-44
2023/08/26 03:50:20;;;;;;;10.48;8.65;;;15.20;99.90;;;;;;6241032;23;19946;-42
2023/08/26 03:52:45;;;;;;;10.35;9.27;;;15.20;99.90;;;;;;6240676;23;20035;-45
2023/08/26 03:55:12;;;;;;;11.55;9.35;;;15.20;99.90;;;;;;6213937;23;20047;-43
2023/08/26 03:57:37;;;;;;;10.23;9.02;;;15.30;99.90;;;;;;6241044;23;20154;-42
2023/08/26 04:00:03;;;;;;;12.15;8.95;;;15.20;99.90;;;;;;6214582;23;20023;-43
2023/08/26 04:02:29;;;;;;;13.25;9.55;;;15.30;99.90;;;;;;6241080;22;20012;-42
2023/08/26 04:04:55;;;;;;;12.18;10.23;;;15.20;99.90;;;;;;6241203;23;20459;-44
2023/08/26 04:07:20;;;;;;;14.07;10.05;;;15.30;99.90;;;;;;6240032;23;20079;-42
2023/08/26 04:09:46;;;;;;;13.85;9.05;;;15.30;99.90;;;;;;6241260;23;20344;-42
2023/08/26 04:12:12;;;;;;;11.57;9.43;;;15.30;99.90;;;;;;6241077;23;20448;-44
2023/08/26 04:14:37;;;;;;;15.63;10.63;;;15.30;99.90;;;;;;6243832;23;20012;-42
2023/08/26 04:17:03;;;;;;;13.43;9.65;;;15.40;99.90;;;;;;6243354;23;20486;-44
2023/08/26 04:19:30;;;;;;;14.68;10.10;;;15.40;99.90;;;;;;6216086;23;20015;-45
2023/08/26 04:21:59;;;;;;;10.27;9.23;;;15.40;99.90;;;;;;6243423;22;20083;-43
2023/08/26 04:24:25;;;;;;;11.27;10.02;;;15.40;99.90;;;;;;6242420;22;20359;-43
2023/08/26 04:26:50;;;;;;;11.70;9.30;;;15.50;99.90;;;;;;6242596;23;20055;-43
2023/08/26 04:29:16;;;;;;;14.05;10.25;;;15.40;99.90;;;;;;6242201;23;20383;-42
2023/08/26 04:31:42;;;;;;;15.13;10.10;;;15.50;99.90;;;;;;6243123;23;20016;-43
2023/08/26 04:34:07;;;;;;;13.77;10.07;;;15.50;99.90;;;;;;6243188;23;20008;-43
2023/08/26 04:36:33;;;;;;;15.75;10.20;;;15.40;99.90;;;;;;6240536;23;20019;-42
2023/08/26 04:38:58;;;;;;;11.93;10.18;;;15.50;99.90;;;;;;6243074;23;20016;-43
2023/08/26 04:41:24;;;;;;;12.85;9.88;;;15.50;99.90;;;;;;6242489;23;20099;-42
2023/08/26 04:43:53;;;;;;;14.55;10.20;;;15.50;99.90;;;;;;6242518;23;20048;-43
2023/08/26 04:46:19;;;;;;;12.05;9.48;;;15.50;99.90;;;;;;6243831;22;20027;-44
2023/08/26 04:48:45;;;;;;;12.57;10.77;;;15.50;99.90;;;;;;6244779;23;20027;-42
2023/08/26 04:51:10;;;;;;;16.42;11.07;;;15.60;99.90;;;;;;6244801;23;20016;-44
2023/08/26 04:53:36;;;;;;;11.45;10.02;;;15.50;99.90;;;;;;6244681;22;20012;-42
2023/08/26 04:56:03;;;;;;;11.88;10.18;;;15.60;99.90;;;;;;6245093;23;20031;-44
2023/08/26 04:58:30;;;;;;;11.73;10.55;;;15.60;99.90;;;;;;6244317;23;20031;-43
2023/08/26 05:00:56;;;;;;;;;;;15.60;99.90;;;;;;6245706;22;20321;-42
2023/08/26 05:03:22;;;;;;;14.25;10.00;;;15.50;99.90;;;;;;6244587;22;19922;-43
2023/08/26 05:05:47;;;;;;;12.02;9.13;;;15.60;99.90;;;;;;6245101;23;20079;-43
2023/08/26 05:08:13;;;;;;;12.25;9.40;;;15.60;99.90;;;;;;6242510;23;20015;-42
2023/08/26 05:10:39;;;;;;;13.93;10.15;;;15.50;99.90;;;;;;6244171;23;20385;-45
2023/08/26 05:13:05;;;;;;;13.93;10.65;;;15.60;99.90;;;;;;6244193;22;20337;-42
2023/08/26 05:15:32;;;;;;;12.82;10.82;;;15.70;99.90;;;;;;6244391;23;20019;-43
2023/08/26 05:17:58;;;;;;;16.07;11.17;;;15.70;99.90;;;;;;6244401;22;20038;-43
2023/08/26 05:20:24;;;;;;;12.40;10.82;;;15.60;99.90;;;;;;6243943;23;20020;-42
2023/08/26 05:22:49;;;;;;;12.85;11.32;;;15.70;99.90;;;;;;6244508;22;20016;-46
2023/08/26 05:25:15;;;;;;;12.80;11.23;;;15.60;99.90;;;;;;6244099;23;20440;-45
2023/08/26 05:27:41;;;;;;;15.43;11.13;;;15.70;99.90;;;;;;6245717;23;20035;-45
2023/08/26 05:30:07;;;;;;;12.35;10.98;;;15.80;99.90;;;;;;6247058;22;20123;-45
2023/08/26 05:32:33;;;;;;;12.65;11.35;;;15.80;99.90;;;;;;6246575;22;20019;-45
2023/08/26 05:34:58;;;;;;;14.77;11.93;;;15.90;99.90;;;;;;6246857;23;20097;-42
2023/08/26 05:37:24;;;;;;;13.05;11.65;;;15.90;99.90;;;;;;6246603;23;20012;-44
2023/08/26 05:39:49;;;;;;;16.83;12.23;;;15.90;99.90;;;;;;6244823;23;20372;-43
2023/08/26 05:42:15;;;;;;;14.50;12.07;;;15.90;99.90;;;;;;6244937;23;20071;-42
2023/08/26 05:44:41;;;;;;;14.85;12.18;;;15.80;99.90;;;;;;6218319;23;20059;-42
2023/08/26 05:47:07;;;;;;;14.50;12.38;;;15.90;99.90;;;;;;6240159;22;20022;-42
2023/08/26 05:49:32;;;;;;;17.08;13.52;;;15.90;99.90;;;;;;6244380;22;20023;-43
2023/08/26 05:51:58;;;;;;;17.23;13.27;;;15.90;99.90;;;;;;6243944;22;20027;-43
2023/08/26 05:54:24;;;;;;;16.98;14.07;;;15.90;99.90;;;;;;6244996;23;20019;-42
2023/08/26 05:56:49;;;;;;;16.38;14.73;;;15.90;99.90;;;;;;6244570;22;20074;-46
2023/08/26 05:59:15;;;;;;;16.30;14.45;;;15.90;99.90;;;;;;6244255;23;20024;-42
2023/08/26 06:01:40;;;;;;;17.40;14.48;;;15.90;99.90;;;;;;6243567;23;20501;-42
2023/08/26 06:04:07;;;;;;;17.38;15.65;;;15.80;99.90;;;;;;6243957;23;20012;-43
2023/08/26 06:06:32;;;;;;;17.20;15.40;;;15.80;99.90;;;;;;6244577;22;20023;-43
2023/08/26 06:08:58;;;;;;;18.05;16.35;;;15.90;99.90;;;;;;6245030;22;20401;-44
2023/08/26 06:11:24;;;;;;;16.42;14.45;;;15.80;99.90;;;;;;6243893;23;20020;-42
2023/08/26 06:13:50;;;;;;;18.50;15.45;;;15.90;99.90;;;;;;6246289;23;20012;-45
2023/08/26 06:16:19;;;;;;;19.08;15.20;;;15.80;99.90;;;;;;6244861;22;20016;-43
2023/08/26 06:18:46;;;;;;;16.58;14.15;;;15.80;99.90;;;;;;6243764;22;20019;-43
2023/08/26 06:21:12;;;;;;;20.35;15.05;;;15.70;99.90;;;;;;6244365;22;20034;-45
2023/08/26 06:23:37;;;;;;;17.92;14.48;;;15.70;99.90;;;;;;6244281;23;20497;-43
2023/08/26 06:26:03;;;;;;;17.70;15.00;;;15.80;99.90;;;;;;6244236;23;20019;-42
2023/08/26 06:28:30;;;;;;;20.02;14.88;;;15.80;99.90;;;;;;6245543;23;20043;-43
2023/08/26 06:31:00;;;;;;;19.63;14.18;;;15.90;99.90;;;;;;6243550;22;20083;-45
2023/08/26 06:33:26;;;;;;;18.90;15.30;;;15.90;99.90;;;;;;6242864;23;20016;-42
2023/08/26 06:35:52;;;;;;;15.38;13.68;;;15.80;99.90;;;;;;6217704;23;20154;-44
2023/08/26 06:38:18;;;;;;;21.20;14.52;;;15.80;99.90;;;;;;6243141;23;20518;-41
2023/08/26 06:40:51;;;;;;;18.45;13.45;;;15.90;99.90;;;;;;6242890;23;20020;-42
2023/08/26 06:43:17;;;;;;;14.90;12.70;;;15.90;99.90;;;;;;6241249;23;20511;-43
2023/08/26 06:45:43;;;;;;;15.90;12.82;;;15.80;99.90;;;;;;6214941;23;20012;-43
2023/08/26 06:48:09;;;;;;;15.05;11.65;;;;;;;;;;6189698;23;20016;-45
2023/08/26 06:50:35;;;;;;;14.05;10.63;;;15.90;99.90;;;;;;6241091;23;20015;-43
2023/08/26 06:53:00;;;;;;;12.55;10.60;;;16.00;99.90;;;;;;6241750;23;20062;-42
2023/08/26 06:55:26;;;;;;;15.02;11.20;;;16.00;99.90;;;;;;6240290;23;20020;-43
2023/08/26 06:57:51;;;;;;;15.30;11.40;;;16.10;99.90;;;;;;6241667;23;20083;-42
2023/08/26 07:00:18;;;;;;;20.92;12.05;;;16.10;99.90;;;;;;6241902;23;20095;-43
2023/08/26 07:02:44;;;;;;;21.88;13.10;;;16.10;99.90;;;;;;6242439;23;20019;-43
2023/08/26 07:05:09;;;;;;;14.20;12.40;;;16.00;99.90;;;;;;6214350;23;20012;-42
2023/08/26 07:07:36;;;;;;;14.02;12.10;;;16.30;99.90;;;;;;6240832;23;20020;-41
2023/08/26 07:10:03;;;;;;;15.85;11.63;;;16.10;99.90;;;;;;6241686;23;20023;-42
2023/08/26 07:12:30;;;;;;;13.35;11.90;;;16.10;99.90;;;;;;6241553;23;20095;-42
2023/08/26 07:14:56;;;;;;;16.40;11.63;;;16.20;99.90;;;;;;6241540;23;20054;-42
2023/08/26 07:17:21;;;;;;;13.70;12.07;;;16.20;99.90;;;;;;6241734;23;20372;-45
2023/08/26 07:19:47;;;;;;;15.88;11.52;;;16.20;99.90;;;;;;6242128;23;20020;-42
2023/08/26 07:22:13;;;;;;;17.60;12.70;;;16.10;99.90;;;;;;6243499;23;20020;-42
2023/08/26 07:24:38;;;;;;;14.63;12.13;;;16.10;99.90;;;;;;6242849;23;20027;-43
2023/08/26 07:27:04;;;;;;;15.23;12.45;;;16.20;99.90;;;;;;6243455;23;20050;-44
2023/08/26 07:29:38;;;;;;;16.90;12.75;;;;;;;;;;6245125;23;20090;-44
2023/08/26 07:32:04;;;;;;;13.45;11.73;;;16.30;99.90;;;;;;6243614;23;20395;-42
2023/08/26 07:34:30;;;;;;;14.75;11.77;;;16.30;99.90;;;;;;6241412;23;20015;-43
2023/08/26 07:36:57;;;;;;;16.08;12.00;;;16.30;99.90;;;;;;6241007;23;20492;-46
2023/08/26 07:39:24;;;;;;;15.35;12.57;;;16.30;99.90;;;;;;6245742;23;20015;-43
2023/08/26 07:41:50;;;;;;;13.55;12.15;;;16.30;99.90;;;;;;6218552;23;20051;-44
2023/08/26 07:44:16;;;;;;;13.77;12.43;;;16.30;99.90;;;;;;6218842;23;20078;-45
2023/08/26 07:46:41;;;;;;;15.07;12.43;;;16.40;99.90;;;;;;6242460;23;20016;-40
2023/08/26 07:49:07;;;;;;;14.35;12.82;;;16.50;99.90;;;;;;6244224;23;20023;-47
2023/08/26 07:51:33;;;;;;;15.57;12.07;;;;;;;;;;6244991;23;20024;-45
2023/08/26 07:53:59;;;;;;;14.10;11.57;;;16.60;99.90;;;;;;6243962;23;20062;-45
2023/08/26 07:56:24;;;;;;;12.68;10.95;;;16.60;99.90;;;;;;6245248;23;20016;-42
2023/08/26 07:58:50;;;;;;;15.73;12.30;;;16.60;99.90;;;;;;6244172;23;20055;-44
2023/08/26 08:01:16;;;;;;;14.27;11.65;;;16.80;99.90;;;;;;6245506;23;20019;-43
2023/08/26 08:03:42;;;;;;;14.60;11.40;;;16.90;99.90;;;;;;6244964;23;20059;-42
2023/08/26 08:06:07;;;;;;;13.35;10.32;;;17.10;99.90;;;;;;6243819;23;20489;-41
2023/08/26 08:08:33;;;;;;;12.98;11.00;;;17.20;99.90;;;;;;6217646;23;20336;-43
2023/08/26 08:10:58;;;;;;;13.20;10.20;;;17.30;99.90;;;;;;6217387;23;20067;-44
2023/08/26 08:13:24;;;;;;;13.52;9.85;;;17.50;99.90;;;;;;6244236;23;20016;-43
2023/08/26 08:15:50;;;;;;;12.65;11.15;;;17.60;99.90;;;;;;6217890;23;20027;-41
2023/08/26 08:18:15;;;;;;;11.00;9.90;;;18.00;99.90;;;;;;6244435;23;20012;-41
2023/08/26 08:20:41;;;;;;;16.05;9.82;;;18.20;99.90;;;;;;6243886;23;20019;-41
2023/08/26 08:23:06;;;;;;;11.80;9.38;;;18.30;99.90;;;;;;6215570;23;20528;-45
2023/08/26 08:25:32;;;;;;;10.90;8.95;;;18.40;99.90;;;;;;6244128;23;20070;-42
2023/08/26 08:27:58;;;;;;;10.82;8.90;;;18.70;99.90;;;;;;6243581;23;20470;-42
2023/08/26 08:30:23;;;;;;;11.93;8.35;;;18.90;99.90;;;;;;6243403;23;20016;-43
2023/08/26 08:32:49;;;;;;;10.35;8.30;;;19.10;99.90;;;;;;6244625;23;20016;-41
2023/08/26 08:35:14;;;;;;;10.57;8.65;;;19.10;99.90;;;;;;6246037;23;20008;-41
2023/08/26 08:37:40;;;;;;;12.57;8.10;;;19.40;99.90;;;;;;6247416;23;20012;-42
2023/08/26 08:40:06;;;;;;;8.43;7.63;;;19.50;99.90;;;;;;6246606;23;20012;-42
2023/08/26 08:42:34;;;;;;;13.45;7.60;;;19.60;99.90;;;;;;6247442;23;20436;-42
2023/08/26 08:44:59;;;;;;;9.90;7.18;;;19.60;99.90;;;;;;6246849;23;20023;-43
2023/08/26 08:47:26;;;;;;;8.82;6.72;;;19.70;99.90;;;;;;6246807;23;20008;-43
2023/08/26 08:49:52;;;;;;;10.07;6.88;;;19.90;99.90;;;;;;6247204;23;20016;-41
2023/08/26 08:52:21;;;;;;;10.60;6.50;;;19.80;99.90;;;;;;6246786;23;20290;-43
2023/08/26 08:54:47;;;;;;;7.47;5.55;;;19.80;99.90;;;;;;6246666;23;20463;-43
2023/08/26 08:57:15;;;;;;;9.40;5.75;;;20.00;99.90;;;;;;6246900;23;20059;-45
2023/08/26 08:59:41;;;;;;;11.15;5.72;;;20.00;99.90;;;;;;6246021;23;20012;-44
2023/08/26 09:02:09;;;;;;;7.95;5.70;;;20.10;99.90;;;;;;6246666;23;20020;-43
2023/08/26 09:04:35;;;;;;;6.13;4.80;;;20.40;99.90;;;;;;6246701;23;20067;-44
2023/08/26 09:07:03;;;;;;;8.43;4.80;;;20.60;99.90;;;;;;6246440;23;20471;-44
2023/08/26 09:09:29;;;;;;;6.47;4.50;;;20.60;99.90;;;;;;6246807;23;20162;-42
2023/08/26 09:11:55;;;;;;;9.23;4.77;;;20.70;99.90;;;;;;6246557;23;20477;-42
2023/08/26 09:14:21;;;;;;;9.95;4.85;;;20.70;99.90;;;;;;6246634;23;20016;-42
2023/08/26 09:16:46;;;;;;;8.15;4.15;;;20.90;99.90;;;;;;6219394;23;20016;-45
2023/08/26 09:19:13;;;;;;;6.78;4.35;;;20.90;99.90;;;;;;6246685;23;20424;-44
2023/08/26 09:21:46;;;;;;;6.37;3.30;;;21.50;99.90;;;;;;6246662;23;20019;-44
2023/08/26 09:24:13;;;;;;;6.10;3.40;;;21.40;99.90;;;;;;6246326;23;20016;-43
2023/08/26 09:26:39;;;;;;;7.28;3.45;;;21.10;99.90;;;;;;6219067;23;20120;-44
2023/08/26 09:29:18;;;;;;;7.07;3.67;;;21.30;99.90;;;;;;6245621;23;20157;-45
2023/08/26 09:31:50;;;;;;;6.93;3.35;;;21.00;99.90;;;;;;6245844;23;20012;-46
2023/08/26 09:34:32;;;;;;;5.20;2.83;;;21.00;99.90;;;;;;6245868;23;20012;-43
2023/08/26 09:37:01;;;;;;;4.93;2.70;;;21.20;99.90;;;;;;6245929;23;20087;-44
2023/08/26 09:39:28;;;;;;;9.20;3.45;;;21.50;99.90;;;;;;6245517;23;20161;-42
2023/08/26 09:41:58;;;;;;;7.60;3.50;;;21.70;99.90;;;;;;6245957;23;20059;-43
2023/08/26 09:44:24;;;;;;;7.15;2.80;;;21.80;99.90;;;;;;6245710;23;20012;-44
2023/08/26 09:46:50;;;;;;;5.88;2.70;;;21.90;99.90;;;;;;6218683;23;20023;-42
2023/08/26 09:49:17;;;;;;;8.07;2.80;;;21.90;99.90;;;;;;6245787;23;20023;-42
2023/08/26 09:51:48;;;;;;;6.20;2.33;;;21.90;99.90;;;;;;6218911;23;20020;-43
2023/08/26 09:54:18;;;;;;;4.85;2.30;;;21.70;99.90;;;;;;6245976;23;20012;-43
2023/08/26 09:56:47;;;;;;;7.80;2.20;;;21.70;99.90;;;;;;6246893;23;20099;-42
2023/08/26 09:59:13;;;;;;;7.68;2.20;;;21.50;99.90;;;;;;6246797;23;20023;-43
2023/08/26 10:01:40;;;;;;;6.20;2.63;;;21.20;99.90;;;;;;6246772;23;20031;-44
2023/08/26 10:04:09;;;;;;;3.17;1.80;;;21.30;99.90;;;;;;6246255;23;20012;-43
2023/08/26 10:06:40;;;;;;;4.13;1.90;;;21.50;99.90;;;;;;6246738;22;20336;-44
2023/08/26 10:09:15;;;;;;;4.57;1.75;;;22.00;99.90;;;;;;6245695;23;20328;-45
2023/08/26 10:11:43;;;;;;;7.00;2.00;;;21.60;99.90;;;;;;6246835;22;20083;-44
2023/08/26 10:14:14;;;;;;;5.15;1.90;;;22.10;99.90;;;;;;6244872;23;20083;-43
2023/08/26 10:16:42;;;;;;;5.63;1.80;;;22.30;99.90;;;;;;6246933;22;20016;-45
2023/08/26 10:19:08;;;;;;;5.85;1.95;;;22.40;99.90;;;;;;6246783;22;20055;-44
2023/08/26 10:21:35;;;;;;;4.70;1.70;;;22.30;99.90;;;;;;6246673;22;20017;-43
2023/08/26 10:24:01;;;;;;;4.53;1.65;;;22.60;99.90;;;;;;6246750;22;20378;-46
2023/08/26 10:26:27;;;;;;;3.97;1.70;;;22.50;99.90;;;;;;6246782;22;20028;-44
2023/08/26 10:28:55;;;;;;;4.18;1.88;;;22.30;99.90;;;;;;6246330;22;20462;-44
2023/08/26 10:31:21;;;;;;;6.80;2.00;;;22.60;99.90;;;;;;6246795;22;20008;-43
2023/08/26 10:34:18;;;;;;;3.47;1.70;;;22.30;99.90;;;;;;6246461;23;20442;-43
2023/08/26 10:36:48;;;;;;;4.25;1.65;;;22.20;99.90;;;;;;6179636;22;20282;-44
2023/08/26 10:39:16;;;;;;;6.93;1.70;;;22.30;99.90;;;;;;6246556;22;20336;-43
2023/08/26 10:42:12;;;;;;;2.58;1.38;;;22.50;99.90;;;;;;6219456;23;20023;-44
2023/08/26 10:44:39;;;;;;;5.07;1.70;;;22.60;99.90;;;;;;6246247;22;20462;-48
2023/08/26 10:47:05;;;;;;;5.88;2.30;;;22.80;99.90;;;;;;6246601;22;20016;-44
2023/08/26 10:49:31;;;;;;;6.03;1.80;;;;;;;;;;6246247;23;20019;-44
2023/08/26 10:52:17;;;;;;;4.00;1.85;;;22.90;99.90;;;;;;6246409;23;20023;-46
2023/08/26 10:54:44;;;;;;;5.53;1.50;;;22.90;99.90;;;;;;6246317;23;20523;-44
2023/08/26 10:57:10;;;;;;;3.60;1.50;;;22.80;99.90;;;;;;6246261;23;20067;-45
2023/08/26 10:59:37;;;;;;;3.58;1.33;;;22.70;99.90;;;;;;6245953;23;20016;-45
2023/08/26 11:02:07;;;;;;;3.88;1.50;;;22.40;99.90;;;;;;6246307;23;20020;-44
2023/08/26 11:04:42;;;;;;;4.25;1.42;;;22.40;99.90;;;;;;6245821;23;20016;-42
2023/08/26 11:07:17;;;;;;;4.20;1.40;;;22.20;99.90;;;;;;6219010;23;20023;-44
2023/08/26 11:09:43;;;;;;;3.97;1.50;;;22.20;99.90;;;;;;6219289;23;20496;-46
2023/08/26 11:12:28;;;;;;;3.10;1.20;;;22.50;99.90;;;;;;6246190;23;20309;-45
2023/08/26 11:15:06;;;;;;;6.18;1.67;;;22.50;99.90;;;;;;6245988;23;20024;-48
2023/08/26 11:17:32;;;;;;;3.83;1.17;;;22.30;99.90;;;;;;6246188;23;20020;-44
2023/08/26 11:19:58;;;;;;;3.13;1.42;;;22.60;99.90;;;;;;6246209;23;20012;-44
2023/08/26 11:22:26;;;;;;;3.70;1.30;;;22.70;99.90;;;;;;6245963;23;20020;-45
2023/08/26 11:24:51;;;;;;;2.92;1.13;;;22.50;99.90;;;;;;6219176;23;20113;-46
2023/08/26 11:27:18;;;;;;;4.40;0.93;;;22.20;99.90;;;;;;6246177;23;20020;-45
2023/08/26 11:29:43;;;;;;;3.03;1.00;;;22.10;99.90;;;;;;6246123;23;20009;-44
2023/08/26 11:32:09;;;;;;;3.40;1.00;;;22.30;99.90;;;;;;6245639;23;20444;-43
2023/08/26 11:34:35;;;;;;;4.90;1.08;;;22.60;99.90;;;;;;6246204;23;20016;-44
2023/08/26 11:37:01;;;;;;;2.33;1.05;;;22.50;99.90;;;;;;6246105;23;20337;-45
2023/08/26 11:39:31;;;;;;;2.70;1.00;;;22.30;99.90;;;;;;6245923;23;20027;-45
2023/08/26 11:41:57;;;;;;;2.28;0.80;;;22.60;99.90;;;;;;6246210;23;20129;-47
2023/08/26 11:44:24;;;;;;;2.60;0.82;;;22.40;99.90;;;;;;6246082;23;20024;-44
2023/08/26 11:46:50;;;;;;;1.38;0.77;;;22.50;99.90;;;;;;6246032;23;20066;-45
2023/08/26 11:49:16;;;;;;;1.42;0.70;;;;;;;;;;6245741;23;20016;-43
2023/08/26 11:51:42;;;;;;;2.92;0.90;;;22.90;99.90;;;;;;6245994;23;20065;-45
2023/08/26 11:54:09;;;;;;;2.85;0.90;;;23.20;99.90;;;;;;6245679;23;20135;-44
2023/08/26 11:56:38;;;;;;;1.75;0.80;;;22.30;99.90;;;;;;6246001;23;20016;-47
2023/08/26 11:59:20;;;;;;;1.88;0.90;;;22.10;99.90;;;;;;6245384;23;20024;-44
2023/08/26 12:01:47;;;;;;;2.42;0.82;;;22.00;99.90;;;;;;6246103;23;20024;-47
2023/08/26 12:04:15;;;;;;;1.70;0.70;;;22.00;99.90;;;;;;6245520;23;20016;-43
2023/08/26 12:06:41;;;;;;;3.42;1.08;;;22.20;99.90;;;;;;6245904;23;20016;-45
2023/08/26 12:09:07;;;;;;;2.70;0.90;;;22.20;99.90;;;;;;6245910;23;20077;-45
2023/08/26 12:11:38;;;;;;;3.58;1.38;;;22.70;99.90;;;;;;6245835;23;20476;-45
2023/08/26 12:14:18;;;;;;;3.33;0.98;;;22.60;99.90;;;;;;6245943;23;20019;-45
2023/08/26 12:16:43;;;;;;;3.28;1.25;;;22.60;99.90;;;;;;6246037;23;20020;-45
2023/08/26 12:19:19;;;;;;;4.15;0.93;;;22.70;99.90;;;;;;6218785;23;20026;-44
2023/08/26 12:21:51;;;;;;;2.75;1.00;;;22.50;99.90;;;;;;6245835;23;20012;-43
2023/08/26 12:24:22;;;;;;;1.70;0.90;;;22.80;99.90;;;;;;6245756;23;20016;-45
2023/08/26 12:26:48;;;;;;;2.28;0.90;;;22.90;99.90;;;;;;6246093;23;20016;-47
2023/08/26 12:29:14;;;;;;;2.53;0.90;;;23.00;99.90;;;;;;6245856;23;20051;-45
2023/08/26 12:31:39;;;;;;;1.42;0.90;;;22.80;99.90;;;;;;6245857;23;20012;-44
2023/08/26 12:34:05;;;;;;;3.58;0.80;;;22.90;99.90;;;;;;6246449;23;20463;-43
2023/08/26 12:36:31;;;;;;;3.05;1.15;;;23.10;99.90;;;;;;6247680;23;20012;-45